Afore Airstrip


Codes: AFR/AFR
Name: Afore Airstrip
City:
Country: Papua New Guinea
Elevation: 2500 ft.

Photos at Afore Airstrip


   Photos courtesy of SpottingLog. You can add your own sightings and photos by signing up for a free trial today.



No photos found.

Weather at Afore Airstrip


Time (UTC)DescriptionTempratureWindCloud coverageVisibilityPressureHumidity
25-Jun-2024 21:00Few Clouds20°C2 mph, W11%10000m1014hPa89%
26-Jun-2024 00:00Few Clouds22°C2 mph, E11%10000m1014hPa79%
26-Jun-2024 03:00Light Rain24°C2 mph, N54%7919m1013hPa80%
26-Jun-2024 06:00Light Rain25°C2 mph, N71%10000m1011hPa85%
26-Jun-2024 09:00Light Rain20°C2 mph, NW14%10000m1013hPa97%
26-Jun-2024 12:00Few Clouds19°C2 mph, W16%10000m1014hPa97%
26-Jun-2024 15:00Broken Clouds19°C2 mph, W80%10000m1013hPa96%
26-Jun-2024 18:00Overcast Clouds19°C2 mph, W90%10000m1013hPa95%
26-Jun-2024 21:00Overcast Clouds19°C2 mph, W100%10000m1014hPa92%
27-Jun-2024 00:00Light Rain23°C2 mph, NW100%10000m1014hPa85%
27-Jun-2024 03:00Overcast Clouds28°C4 mph, NE100%10000m1011hPa55%
27-Jun-2024 06:00Light Rain25°C4 mph, NE100%10000m1009hPa74%
27-Jun-2024 09:00Light Rain20°C2 mph, NW100%10000m1012hPa98%
27-Jun-2024 12:00Light Rain20°C2 mph, W100%10000m1014hPa97%
27-Jun-2024 15:00Light Rain19°C2 mph, SW95%10000m1013hPa97%
27-Jun-2024 18:00Light Rain20°C2 mph, SW97%10000m1012hPa97%
27-Jun-2024 21:00Light Rain20°C2 mph, SW86%10000m1014hPa96%
28-Jun-2024 00:00Light Rain21°C4 mph, S92%10000m1015hPa93%
28-Jun-2024 03:00Moderate Rain20°C2 mph, SW100%9578m1014hPa99%
28-Jun-2024 06:00Light Rain22°C2 mph, NW100%10000m1012hPa87%
28-Jun-2024 09:00Light Rain20°C2 mph, W91%10000m1013hPa97%
28-Jun-2024 12:00Overcast Clouds19°C2 mph, SW91%10000m1015hPa96%
28-Jun-2024 15:00Overcast Clouds19°C2 mph, W86%10000m1013hPa94%
28-Jun-2024 18:00Broken Clouds18°C2 mph, W83%10000m1013hPa94%
28-Jun-2024 21:00Overcast Clouds19°C2 mph, W99%10000m1014hPa91%
29-Jun-2024 00:00Broken Clouds27°C2 mph, SE81%10000m1014hPa59%
29-Jun-2024 03:00Light Rain29°C4 mph, E40%10000m1011hPa53%
29-Jun-2024 06:00Light Rain24°C2 mph, E59%10000m1011hPa82%
29-Jun-2024 09:00Light Rain20°C2 mph, SW100%10000m1013hPa97%
29-Jun-2024 12:00Light Rain19°C4 mph, SW100%10000m1015hPa96%
29-Jun-2024 15:00Overcast Clouds18°C4 mph, SW100%10000m1014hPa97%
29-Jun-2024 18:00Overcast Clouds18°C4 mph, SW100%10000m1013hPa96%
29-Jun-2024 21:00Overcast Clouds18°C4 mph, W100%10000m1014hPa94%
30-Jun-2024 00:00Overcast Clouds27°C2 mph, E100%10000m1013hPa58%
30-Jun-2024 03:00Light Rain25°C2 mph, NE92%10000m1011hPa77%
30-Jun-2024 06:00Moderate Rain22°C2 mph, NE88%10000m1010hPa94%
30-Jun-2024 09:00Light Rain20°C2 mph, S95%8861m1012hPa99%
30-Jun-2024 12:00Light Rain20°C0 mph, SW97%10000m1014hPa98%
30-Jun-2024 15:00Light Rain19°C2 mph, W100%10000m1013hPa98%
30-Jun-2024 18:00Overcast Clouds18°C2 mph, W100%10000m1012hPa97%